sensor_id;sensor_type;location;lat;lon;timestamp;temperature;humidity
68128;SHT30;54931;52.098;21.006;2022-10-16T00:01:17;14.91;69.95
68128;SHT30;54931;52.098;21.006;2022-10-16T00:03:46;14.88;70.00
68128;SHT30;54931;52.098;21.006;2022-10-16T00:06:15;14.91;70.02
68128;SHT30;54931;52.098;21.006;2022-10-16T00:08:43;14.93;69.91
68128;SHT30;54931;52.098;21.006;2022-10-16T00:11:12;14.90;69.94
68128;SHT30;54931;52.098;21.006;2022-10-16T00:13:45;14.88;70.01
68128;SHT30;54931;52.098;21.006;2022-10-16T00:16:16;14.89;69.96
68128;SHT30;54931;52.098;21.006;2022-10-16T00:18:43;14.92;69.87
68128;SHT30;54931;52.098;21.006;2022-10-16T00:21:11;14.91;69.84
68128;SHT30;54931;52.098;21.006;2022-10-16T00:23:42;14.87;69.95
68128;SHT30;54931;52.098;21.006;2022-10-16T00:26:11;14.88;69.92
68128;SHT30;54931;52.098;21.006;2022-10-16T00:28:40;14.90;69.90
68128;SHT30;54931;52.098;21.006;2022-10-16T00:31:08;14.89;69.90
68128;SHT30;54931;52.098;21.006;2022-10-16T00:33:38;14.85;70.04
68128;SHT30;54931;52.098;21.006;2022-10-16T00:36:06;14.84;70.04
68128;SHT30;54931;52.098;21.006;2022-10-16T00:38:34;14.86;70.00
68128;SHT30;54931;52.098;21.006;2022-10-16T00:41:01;14.89;69.93
68128;SHT30;54931;52.098;21.006;2022-10-16T00:46:11;14.85;70.20
68128;SHT30;54931;52.098;21.006;2022-10-16T00:48:46;14.88;70.28
68128;SHT30;54931;52.098;21.006;2022-10-16T00:51:19;14.89;70.18
68128;SHT30;54931;52.098;21.006;2022-10-16T00:53:49;14.82;70.48
68128;SHT30;54931;52.098;21.006;2022-10-16T00:56:17;14.79;70.59
68128;SHT30;54931;52.098;21.006;2022-10-16T00:58:44;14.82;70.61
68128;SHT30;54931;52.098;21.006;2022-10-16T01:01:12;14.81;70.55
68128;SHT30;54931;52.098;21.006;2022-10-16T01:03:39;14.77;70.62
68128;SHT30;54931;52.098;21.006;2022-10-16T01:09:33;14.80;70.52
68128;SHT30;54931;52.098;21.006;2022-10-16T01:14:53;14.79;70.50
68128;SHT30;54931;52.098;21.006;2022-10-16T01:17:35;14.79;70.58
68128;SHT30;54931;52.098;21.006;2022-10-16T01:20:31;14.82;70.50
68128;SHT30;54931;52.098;21.006;2022-10-16T01:23:10;14.80;70.58
68128;SHT30;54931;52.098;21.006;2022-10-16T01:26:06;14.76;70.80
68128;SHT30;54931;52.098;21.006;2022-10-16T01:31:24;14.76;71.18
68128;SHT30;54931;52.098;21.006;2022-10-16T01:33:56;14.72;71.81
68128;SHT30;54931;52.098;21.006;2022-10-16T01:36:37;14.61;72.28
68128;SHT30;54931;52.098;21.006;2022-10-16T01:39:08;14.55;72.52
68128;SHT30;54931;52.098;21.006;2022-10-16T01:41:38;14.52;72.67
68128;SHT30;54931;52.098;21.006;2022-10-16T01:44:13;14.51;72.76
68128;SHT30;54931;52.098;21.006;2022-10-16T01:46:46;14.48;72.87
68128;SHT30;54931;52.098;21.006;2022-10-16T01:49:16;14.44;73.00
68128;SHT30;54931;52.098;21.006;2022-10-16T01:51:44;14.45;72.97
68128;SHT30;54931;52.098;21.006;2022-10-16T01:54:15;14.47;72.87
68128;SHT30;54931;52.098;21.006;2022-10-16T01:56:45;14.51;72.79
68128;SHT30;54931;52.098;21.006;2022-10-16T01:59:24;14.53;72.74
68128;SHT30;54931;52.098;21.006;2022-10-16T02:01:55;14.54;72.71
68128;SHT30;54931;52.098;21.006;2022-10-16T02:04:29;14.51;72.73
68128;SHT30;54931;52.098;21.006;2022-10-16T02:07:02;14.51;72.66
68128;SHT30;54931;52.098;21.006;2022-10-16T02:09:30;14.52;72.60
68128;SHT30;54931;52.098;21.006;2022-10-16T02:12:01;14.55;72.58
68128;SHT30;54931;52.098;21.006;2022-10-16T02:14:36;14.58;72.52
68128;SHT30;54931;52.098;21.006;2022-10-16T02:17:10;14.60;72.39
68128;SHT30;54931;52.098;21.006;2022-10-16T02:19:38;14.58;72.46
68128;SHT30;54931;52.098;21.006;2022-10-16T02:22:06;14.59;72.45
68128;SHT30;54931;52.098;21.006;2022-10-16T02:24:54;14.60;72.42
68128;SHT30;54931;52.098;21.006;2022-10-16T02:27:34;14.62;72.40
68128;SHT30;54931;52.098;21.006;2022-10-16T02:33:00;14.57;72.51
68128;SHT30;54931;52.098;21.006;2022-10-16T02:35:29;14.58;72.48
68128;SHT30;54931;52.098;21.006;2022-10-16T02:37:57;14.60;72.42
68128;SHT30;54931;52.098;21.006;2022-10-16T02:40:25;14.57;72.46
68128;SHT30;54931;52.098;21.006;2022-10-16T02:42:54;14.54;72.53
68128;SHT30;54931;52.098;21.006;2022-10-16T02:45:22;14.56;72.52
68128;SHT30;54931;52.098;21.006;2022-10-16T02:47:50;14.58;72.41
68128;SHT30;54931;52.098;21.006;2022-10-16T02:50:17;14.58;72.43
68128;SHT30;54931;52.098;21.006;2022-10-16T02:52:44;14.55;72.59
68128;SHT30;54931;52.098;21.006;2022-10-16T02:55:11;14.52;72.56
68128;SHT30;54931;52.098;21.006;2022-10-16T02:57:37;14.54;72.58
68128;SHT30;54931;52.098;21.006;2022-10-16T03:00:07;14.56;72.49
68128;SHT30;54931;52.098;21.006;2022-10-16T03:02:36;14.57;72.50
68128;SHT30;54931;52.098;21.006;2022-10-16T03:05:03;14.59;72.46
68128;SHT30;54931;52.098;21.006;2022-10-16T03:07:30;14.55;72.46
68128;SHT30;54931;52.098;21.006;2022-10-16T03:09:57;14.54;72.49
68128;SHT30;54931;52.098;21.006;2022-10-16T03:12:27;14.56;72.47
68128;SHT30;54931;52.098;21.006;2022-10-16T03:14:54;14.58;72.33
68128;SHT30;54931;52.098;21.006;2022-10-16T03:17:23;14.54;72.31
68128;SHT30;54931;52.098;21.006;2022-10-16T03:19:50;14.52;72.37
68128;SHT30;54931;52.098;21.006;2022-10-16T03:22:17;14.54;72.39
68128;SHT30;54931;52.098;21.006;2022-10-16T03:24:44;14.57;72.28
68128;SHT30;54931;52.098;21.006;2022-10-16T03:27:11;14.55;72.26
68128;SHT30;54931;52.098;21.006;2022-10-16T03:29:38;14.53;72.37
68128;SHT30;54931;52.098;21.006;2022-10-16T03:32:05;14.51;72.39
68128;SHT30;54931;52.098;21.006;2022-10-16T03:34:32;14.50;72.40
68128;SHT30;54931;52.098;21.006;2022-10-16T03:36:58;14.51;72.36
68128;SHT30;54931;52.098;21.006;2022-10-16T03:39:25;14.53;72.19
68128;SHT30;54931;52.098;21.006;2022-10-16T03:41:53;14.54;72.18
68128;SHT30;54931;52.098;21.006;2022-10-16T03:44:20;14.50;72.20
68128;SHT30;54931;52.098;21.006;2022-10-16T03:46:47;14.50;72.18
68128;SHT30;54931;52.098;21.006;2022-10-16T03:49:13;14.52;72.11
68128;SHT30;54931;52.098;21.006;2022-10-16T03:51:40;14.52;72.10
68128;SHT30;54931;52.098;21.006;2022-10-16T03:54:07;14.51;72.10
68128;SHT30;54931;52.098;21.006;2022-10-16T03:56:34;14.50;72.19
68128;SHT30;54931;52.098;21.006;2022-10-16T03:59:01;14.51;72.13
68128;SHT30;54931;52.098;21.006;2022-10-16T04:01:27;14.53;72.03
68128;SHT30;54931;52.098;21.006;2022-10-16T04:03:54;14.49;72.06
68128;SHT30;54931;52.098;21.006;2022-10-16T04:06:21;14.45;72.12
68128;SHT30;54931;52.098;21.006;2022-10-16T04:08:48;14.43;72.17
68128;SHT30;54931;52.098;21.006;2022-10-16T04:11:15;14.42;72.14
68128;SHT30;54931;52.098;21.006;2022-10-16T04:13:42;14.37;72.24
68128;SHT30;54931;52.098;21.006;2022-10-16T04:16:10;14.31;72.45
68128;SHT30;54931;52.098;21.006;2022-10-16T04:18:36;14.27;72.51
68128;SHT30;54931;52.098;21.006;2022-10-16T04:21:07;14.24;72.58
68128;SHT30;54931;52.098;21.006;2022-10-16T04:23:34;14.19;72.63
68128;SHT30;54931;52.098;21.006;2022-10-16T04:26:01;14.13;72.86
68128;SHT30;54931;52.098;21.006;2022-10-16T04:28:28;14.06;73.05
68128;SHT30;54931;52.098;21.006;2022-10-16T04:30:55;14.04;73.18
68128;SHT30;54931;52.098;21.006;2022-10-16T04:33:22;14.04;73.19
68128;SHT30;54931;52.098;21.006;2022-10-16T04:35:55;14.04;73.20
68128;SHT30;54931;52.098;21.006;2022-10-16T04:38:23;13.99;73.25
68128;SHT30;54931;52.098;21.006;2022-10-16T04:40:50;13.91;73.45
68128;SHT30;54931;52.098;21.006;2022-10-16T04:43:16;13.84;73.59
68128;SHT30;54931;52.098;21.006;2022-10-16T04:45:43;13.77;73.73
68128;SHT30;54931;52.098;21.006;2022-10-16T04:48:10;13.71;73.87
68128;SHT30;54931;52.098;21.006;2022-10-16T04:50:37;13.65;74.07
68128;SHT30;54931;52.098;21.006;2022-10-16T04:53:05;13.60;74.19
68128;SHT30;54931;52.098;21.006;2022-10-16T04:55:33;13.56;74.29
68128;SHT30;54931;52.098;21.006;2022-10-16T04:58:00;13.48;74.54
68128;SHT30;54931;52.098;21.006;2022-10-16T05:00:27;13.42;74.87
68128;SHT30;54931;52.098;21.006;2022-10-16T05:02:54;13.38;74.98
68128;SHT30;54931;52.098;21.006;2022-10-16T05:05:21;13.35;75.05
68128;SHT30;54931;52.098;21.006;2022-10-16T05:07:48;13.33;75.15
68128;SHT30;54931;52.098;21.006;2022-10-16T05:10:16;13.31;75.23
68128;SHT30;54931;52.098;21.006;2022-10-16T05:12:43;13.29;75.30
68128;SHT30;54931;52.098;21.006;2022-10-16T05:15:11;13.27;75.35
68128;SHT30;54931;52.098;21.006;2022-10-16T05:17:38;13.26;75.43
68128;SHT30;54931;52.098;21.006;2022-10-16T05:20:05;13.26;75.45
68128;SHT30;54931;52.098;21.006;2022-10-16T05:22:32;13.26;75.50
68128;SHT30;54931;52.098;21.006;2022-10-16T05:24:59;13.26;75.56
68128;SHT30;54931;52.098;21.006;2022-10-16T05:27:26;13.23;75.63
68128;SHT30;54931;52.098;21.006;2022-10-16T05:29:53;13.21;75.72
68128;SHT30;54931;52.098;21.006;2022-10-16T05:32:20;13.23;75.70
68128;SHT30;54931;52.098;21.006;2022-10-16T05:34:47;13.28;75.64
68128;SHT30;54931;52.098;21.006;2022-10-16T05:37:14;13.29;75.68
68128;SHT30;54931;52.098;21.006;2022-10-16T05:39:40;13.26;75.72
68128;SHT30;54931;52.098;21.006;2022-10-16T05:42:07;13.24;75.78
68128;SHT30;54931;52.098;21.006;2022-10-16T05:44:34;13.25;75.80
68128;SHT30;54931;52.098;21.006;2022-10-16T05:47:01;13.26;75.80
68128;SHT30;54931;52.098;21.006;2022-10-16T05:49:28;13.27;75.80
68128;SHT30;54931;52.098;21.006;2022-10-16T05:51:54;13.30;75.81
68128;SHT30;54931;52.098;21.006;2022-10-16T05:54:21;13.34;75.74
68128;SHT30;54931;52.098;21.006;2022-10-16T05:56:48;13.38;75.63
68128;SHT30;54931;52.098;21.006;2022-10-16T05:59:15;13.42;75.57
68128;SHT30;54931;52.098;21.006;2022-10-16T06:01:42;13.45;75.50
68128;SHT30;54931;52.098;21.006;2022-10-16T06:04:09;13.49;75.42
68128;SHT30;54931;52.098;21.006;2022-10-16T06:06:36;13.55;75.26
68128;SHT30;54931;52.098;21.006;2022-10-16T06:09:03;13.62;75.15
68128;SHT30;54931;52.098;21.006;2022-10-16T06:11:31;13.67;74.98
68128;SHT30;54931;52.098;21.006;2022-10-16T06:14:00;13.76;74.81
68128;SHT30;54931;52.098;21.006;2022-10-16T06:16:29;14.04;74.47
68128;SHT30;54931;52.098;21.006;2022-10-16T06:18:55;14.34;73.54
68128;SHT30;54931;52.098;21.006;2022-10-16T06:21:23;14.27;73.17
68128;SHT30;54931;52.098;21.006;2022-10-16T06:23:51;14.22;73.21
68128;SHT30;54931;52.098;21.006;2022-10-16T06:26:20;14.18;73.27
68128;SHT30;54931;52.098;21.006;2022-10-16T06:28:49;14.17;73.33
68128;SHT30;54931;52.098;21.006;2022-10-16T06:31:16;14.18;73.34
68128;SHT30;54931;52.098;21.006;2022-10-16T06:33:44;14.20;73.32
68128;SHT30;54931;52.098;21.006;2022-10-16T06:36:14;14.33;73.24
68128;SHT30;54931;52.098;21.006;2022-10-16T06:38:43;14.62;72.93
68128;SHT30;54931;52.098;21.006;2022-10-16T06:41:13;14.84;72.06
68128;SHT30;54931;52.098;21.006;2022-10-16T06:43:42;14.83;71.76
68128;SHT30;54931;52.098;21.006;2022-10-16T06:46:11;14.77;71.97
68128;SHT30;54931;52.098;21.006;2022-10-16T06:48:40;14.77;72.04
68128;SHT30;54931;52.098;21.006;2022-10-16T06:51:20;14.89;71.95
68128;SHT30;54931;52.098;21.006;2022-10-16T06:53:49;15.00;71.76
68128;SHT30;54931;52.098;21.006;2022-10-16T06:56:19;15.04;71.71
68128;SHT30;54931;52.098;21.006;2022-10-16T06:58:48;15.13;71.52
68128;SHT30;54931;52.098;21.006;2022-10-16T07:01:16;15.36;71.02
68128;SHT30;54931;52.098;21.006;2022-10-16T07:03:45;15.62;70.74
68128;SHT30;54931;52.098;21.006;2022-10-16T07:06:15;15.70;70.16
68128;SHT30;54931;52.098;21.006;2022-10-16T07:08:44;15.70;70.39
68128;SHT30;54931;52.098;21.006;2022-10-16T07:11:14;15.75;70.30
68128;SHT30;54931;52.098;21.006;2022-10-16T07:13:45;15.82;69.94
68128;SHT30;54931;52.098;21.006;2022-10-16T07:16:14;15.77;70.01
68128;SHT30;54931;52.098;21.006;2022-10-16T07:18:43;15.74;70.44
68128;SHT30;54931;52.098;21.006;2022-10-16T07:21:13;15.80;70.28
68128;SHT30;54931;52.098;21.006;2022-10-16T07:23:44;15.80;70.22
68128;SHT30;54931;52.098;21.006;2022-10-16T07:26:11;15.78;70.28
68128;SHT30;54931;52.098;21.006;2022-10-16T07:28:38;15.77;70.50
68128;SHT30;54931;52.098;21.006;2022-10-16T07:31:07;15.83;70.44
68128;SHT30;54931;52.098;21.006;2022-10-16T07:33:37;15.91;70.29
68128;SHT30;54931;52.098;21.006;2022-10-16T07:36:05;15.94;70.25
68128;SHT30;54931;52.098;21.006;2022-10-16T07:38:32;16.07;70.09
68128;SHT30;54931;52.098;21.006;2022-10-16T07:41:00;16.80;69.05
68128;SHT30;54931;52.098;21.006;2022-10-16T07:43:30;17.55;67.01
68128;SHT30;54931;52.098;21.006;2022-10-16T07:45:57;18.02;65.08
68128;SHT30;54931;52.098;21.006;2022-10-16T07:48:26;18.24;64.40
68128;SHT30;54931;52.098;21.006;2022-10-16T07:50:58;18.52;63.50
68128;SHT30;54931;52.098;21.006;2022-10-16T07:53:29;18.91;62.79
68128;SHT30;54931;52.098;21.006;2022-10-16T07:56:00;19.04;61.00
68128;SHT30;54931;52.098;21.006;2022-10-16T07:58:28;18.99;61.82
68128;SHT30;54931;52.098;21.006;2022-10-16T08:00:56;19.31;61.54
68128;SHT30;54931;52.098;21.006;2022-10-16T08:03:24;19.57;59.96
68128;SHT30;54931;52.098;21.006;2022-10-16T08:05:52;19.62;59.81
68128;SHT30;54931;52.098;21.006;2022-10-16T08:08:19;19.64;59.32
68128;SHT30;54931;52.098;21.006;2022-10-16T08:10:46;19.72;59.82
68128;SHT30;54931;52.098;21.006;2022-10-16T08:13:13;19.92;59.36
68128;SHT30;54931;52.098;21.006;2022-10-16T08:15:42;20.09;58.59
68128;SHT30;54931;52.098;21.006;2022-10-16T08:18:11;20.24;57.59
68128;SHT30;54931;52.098;21.006;2022-10-16T08:20:39;20.18;57.94
68128;SHT30;54931;52.098;21.006;2022-10-16T08:23:07;20.49;58.43
68128;SHT30;54931;52.098;21.006;2022-10-16T08:25:37;20.68;57.71
68128;SHT30;54931;52.098;21.006;2022-10-16T08:28:05;20.76;56.44
68128;SHT30;54931;52.098;21.006;2022-10-16T08:30:33;20.58;57.24
68128;SHT30;54931;52.098;21.006;2022-10-16T08:33:01;20.66;57.50
68128;SHT30;54931;52.098;21.006;2022-10-16T08:35:28;20.61;57.06
68128;SHT30;54931;52.098;21.006;2022-10-16T08:37:55;20.57;57.13
68128;SHT30;54931;52.098;21.006;2022-10-16T08:40:23;20.37;57.07
68128;SHT30;54931;52.098;21.006;2022-10-16T08:51:26;19.48;60.08
68128;SHT30;54931;52.098;21.006;2022-10-16T08:54:08;19.33;60.60
68128;SHT30;54931;52.098;21.006;2022-10-16T08:56:37;19.31;61.12
68128;SHT30;54931;52.098;21.006;2022-10-16T08:59:06;19.30;60.98
68128;SHT30;54931;52.098;21.006;2022-10-16T09:01:38;19.25;61.48
68128;SHT30;54931;52.098;21.006;2022-10-16T09:07:35;19.30;61.91
68128;SHT30;54931;52.098;21.006;2022-10-16T09:16:21;19.96;61.41
68128;SHT30;54931;52.098;21.006;2022-10-16T09:18:44;20.05;61.19
68128;SHT30;54931;52.098;21.006;2022-10-16T09:21:15;20.12;60.84
68128;SHT30;54931;52.098;21.006;2022-10-16T09:23:47;20.25;60.69
68128;SHT30;54931;52.098;21.006;2022-10-16T09:26:15;20.58;60.34
68128;SHT30;54931;52.098;21.006;2022-10-16T09:28:45;20.95;59.86
68128;SHT30;54931;52.098;21.006;2022-10-16T09:31:20;21.27;58.58
68128;SHT30;54931;52.098;21.006;2022-10-16T09:33:53;21.56;57.45
68128;SHT30;54931;52.098;21.006;2022-10-16T09:36:24;21.76;57.49
68128;SHT30;54931;52.098;21.006;2022-10-16T09:39:04;21.99;56.80
68128;SHT30;54931;52.098;21.006;2022-10-16T09:41:38;22.04;55.78
68128;SHT30;54931;52.098;21.006;2022-10-16T09:47:04;21.88;55.49
68128;SHT30;54931;52.098;21.006;2022-10-16T09:49:38;22.07;56.28
68128;SHT30;54931;52.098;21.006;2022-10-16T09:52:12;22.44;55.99
68128;SHT30;54931;52.098;21.006;2022-10-16T09:54:54;22.68;54.83
68128;SHT30;54931;52.098;21.006;2022-10-16T09:57:25;22.69;54.61
68128;SHT30;54931;52.098;21.006;2022-10-16T09:59:54;22.56;54.38
68128;SHT30;54931;52.098;21.006;2022-10-16T10:02:34;22.41;54.74
68128;SHT30;54931;52.098;21.006;2022-10-16T10:05:02;22.32;55.25
68128;SHT30;54931;52.098;21.006;2022-10-16T10:07:42;22.32;55.45
68128;SHT30;54931;52.098;21.006;2022-10-16T10:10:25;22.30;54.97
68128;SHT30;54931;52.098;21.006;2022-10-16T10:12:55;22.16;55.10
68128;SHT30;54931;52.098;21.006;2022-10-16T10:15:23;22.09;55.83
68128;SHT30;54931;52.098;21.006;2022-10-16T10:17:54;22.14;55.88
68128;SHT30;54931;52.098;21.006;2022-10-16T10:20:24;22.26;55.69
68128;SHT30;54931;52.098;21.006;2022-10-16T10:22:54;22.25;55.51
68128;SHT30;54931;52.098;21.006;2022-10-16T10:25:25;22.24;55.39
68128;SHT30;54931;52.098;21.006;2022-10-16T10:33:31;22.54;55.01
68128;SHT30;54931;52.098;21.006;2022-10-16T10:50:21;22.52;54.20
68128;SHT30;54931;52.098;21.006;2022-10-16T10:56:09;22.66;54.74
68128;SHT30;54931;52.098;21.006;2022-10-16T11:01:56;22.51;54.17
68128;SHT30;54931;52.098;21.006;2022-10-16T11:05:21;22.47;54.51
68128;SHT30;54931;52.098;21.006;2022-10-16T11:07:37;22.47;53.54
68128;SHT30;54931;52.098;21.006;2022-10-16T11:10:24;22.21;54.30
68128;SHT30;54931;52.098;21.006;2022-10-16T11:13:59;22.34;55.03
68128;SHT30;54931;52.098;21.006;2022-10-16T11:16:00;22.57;54.59
68128;SHT30;54931;52.098;21.006;2022-10-16T11:18:40;22.61;54.11
68128;SHT30;54931;52.098;21.006;2022-10-16T11:21:13;22.47;53.85
68128;SHT30;54931;52.098;21.006;2022-10-16T11:23:54;22.31;54.11
68128;SHT30;54931;52.098;21.006;2022-10-16T11:26:28;22.07;54.46
68128;SHT30;54931;52.098;21.006;2022-10-16T11:28:59;22.07;55.13
68128;SHT30;54931;52.098;21.006;2022-10-16T11:34:32;22.26;54.71
68128;SHT30;54931;52.098;21.006;2022-10-16T11:40:22;22.15;54.19
68128;SHT30;54931;52.098;21.006;2022-10-16T11:43:27;21.90;54.68
68128;SHT30;54931;52.098;21.006;2022-10-16T11:46:17;21.80;55.54
68128;SHT30;54931;52.098;21.006;2022-10-16T11:48:49;21.71;55.39
68128;SHT30;54931;52.098;21.006;2022-10-16T11:54:08;21.66;55.79
68128;SHT30;54931;52.098;21.006;2022-10-16T11:56:48;21.64;55.87
68128;SHT30;54931;52.098;21.006;2022-10-16T11:59:38;21.69;56.25
68128;SHT30;54931;52.098;21.006;2022-10-16T12:05:17;22.01;55.46
68128;SHT30;54931;52.098;21.006;2022-10-16T12:08:02;22.15;55.07
68128;SHT30;54931;52.098;21.006;2022-10-16T12:10:39;22.27;54.56
68128;SHT30;54931;52.098;21.006;2022-10-16T12:18:42;22.45;54.32
68128;SHT30;54931;52.098;21.006;2022-10-16T12:21:11;22.43;54.17
68128;SHT30;54931;52.098;21.006;2022-10-16T12:23:51;22.30;54.07
68128;SHT30;54931;52.098;21.006;2022-10-16T12:26:27;22.08;54.44
68128;SHT30;54931;52.098;21.006;2022-10-16T12:28:57;21.91;55.09
68128;SHT30;54931;52.098;21.006;2022-10-16T12:31:43;21.85;55.31
68128;SHT30;54931;52.098;21.006;2022-10-16T12:34:29;21.79;56.06
68128;SHT30;54931;52.098;21.006;2022-10-16T12:37:11;21.80;55.43
68128;SHT30;54931;52.098;21.006;2022-10-16T12:39:45;21.76;56.00
68128;SHT30;54931;52.098;21.006;2022-10-16T12:44:56;22.05;55.43
68128;SHT30;54931;52.098;21.006;2022-10-16T12:47:34;22.24;55.64
68128;SHT30;54931;52.098;21.006;2022-10-16T12:50:05;22.52;55.20
68128;SHT30;54931;52.098;21.006;2022-10-16T12:53:23;22.60;54.52
68128;SHT30;54931;52.098;21.006;2022-10-16T12:58:51;22.74;54.69
68128;SHT30;54931;52.098;21.006;2022-10-16T13:01:34;22.85;54.90
68128;SHT30;54931;52.098;21.006;2022-10-16T13:10:31;22.82;54.22
68128;SHT30;54931;52.098;21.006;2022-10-16T13:15:52;22.41;54.81
68128;SHT30;54931;52.098;21.006;2022-10-16T13:24:25;21.78;56.65
68128;SHT30;54931;52.098;21.006;2022-10-16T13:29:52;21.72;57.45
68128;SHT30;54931;52.098;21.006;2022-10-16T13:32:21;21.70;57.68
68128;SHT30;54931;52.098;21.006;2022-10-16T13:34:48;21.66;58.13
68128;SHT30;54931;52.098;21.006;2022-10-16T13:37:19;21.62;58.18
68128;SHT30;54931;52.098;21.006;2022-10-16T13:39:48;21.59;58.51
68128;SHT30;54931;52.098;21.006;2022-10-16T13:42:25;21.59;58.72
68128;SHT30;54931;52.098;21.006;2022-10-16T13:44:54;21.60;58.83
68128;SHT30;54931;52.098;21.006;2022-10-16T13:47:23;21.59;58.59
68128;SHT30;54931;52.098;21.006;2022-10-16T13:52:33;21.42;58.98
68128;SHT30;54931;52.098;21.006;2022-10-16T13:55:00;21.37;59.11
68128;SHT30;54931;52.098;21.006;2022-10-16T13:57:27;21.33;59.20
68128;SHT30;54931;52.098;21.006;2022-10-16T13:59:54;21.27;59.34
68128;SHT30;54931;52.098;21.006;2022-10-16T14:02:31;21.19;59.46
68128;SHT30;54931;52.098;21.006;2022-10-16T14:05:03;21.14;59.72
68128;SHT30;54931;52.098;21.006;2022-10-16T14:07:34;21.03;59.81
68128;SHT30;54931;52.098;21.006;2022-10-16T14:10:05;20.95;60.07
68128;SHT30;54931;52.098;21.006;2022-10-16T14:12:44;20.87;60.46
68128;SHT30;54931;52.098;21.006;2022-10-16T14:15:16;20.82;60.64
68128;SHT30;54931;52.098;21.006;2022-10-16T14:17:45;20.77;60.58
68128;SHT30;54931;52.098;21.006;2022-10-16T14:20:15;20.71;60.69
68128;SHT30;54931;52.098;21.006;2022-10-16T14:22:43;20.66;60.97
68128;SHT30;54931;52.098;21.006;2022-10-16T14:25:29;20.60;61.08
68128;SHT30;54931;52.098;21.006;2022-10-16T14:27:59;20.52;61.38
68128;SHT30;54931;52.098;21.006;2022-10-16T14:30:33;20.45;61.79
68128;SHT30;54931;52.098;21.006;2022-10-16T14:33:03;20.39;61.81
68128;SHT30;54931;52.098;21.006;2022-10-16T14:35:36;20.32;61.98
68128;SHT30;54931;52.098;21.006;2022-10-16T14:38:05;20.28;61.99
68128;SHT30;54931;52.098;21.006;2022-10-16T14:40:46;20.25;62.16
68128;SHT30;54931;52.098;21.006;2022-10-16T14:43:19;20.21;62.32
68128;SHT30;54931;52.098;21.006;2022-10-16T14:45:52;20.17;62.38
68128;SHT30;54931;52.098;21.006;2022-10-16T14:48:21;20.13;62.61
68128;SHT30;54931;52.098;21.006;2022-10-16T14:50:48;20.13;62.75
68128;SHT30;54931;52.098;21.006;2022-10-16T14:53:17;20.17;62.73
68128;SHT30;54931;52.098;21.006;2022-10-16T14:55:44;20.19;62.69
68128;SHT30;54931;52.098;21.006;2022-10-16T14:58:19;20.15;62.79
68128;SHT30;54931;52.098;21.006;2022-10-16T15:00:48;20.08;62.99
68128;SHT30;54931;52.098;21.006;2022-10-16T15:03:15;20.01;63.16
68128;SHT30;54931;52.098;21.006;2022-10-16T15:05:42;19.96;63.38
68128;SHT30;54931;52.098;21.006;2022-10-16T15:08:10;19.89;63.54
68128;SHT30;54931;52.098;21.006;2022-10-16T15:10:41;19.82;63.70
68128;SHT30;54931;52.098;21.006;2022-10-16T15:13:13;19.78;63.84
68128;SHT30;54931;52.098;21.006;2022-10-16T15:15:44;19.80;63.97
68128;SHT30;54931;52.098;21.006;2022-10-16T15:18:12;19.78;64.04
68128;SHT30;54931;52.098;21.006;2022-10-16T15:20:41;19.74;64.27
68128;SHT30;54931;52.098;21.006;2022-10-16T15:23:15;19.66;64.47
68128;SHT30;54931;52.098;21.006;2022-10-16T15:28:16;19.54;64.88
68128;SHT30;54931;52.098;21.006;2022-10-16T15:30:46;19.49;65.12
68128;SHT30;54931;52.098;21.006;2022-10-16T15:33:18;19.45;65.35
68128;SHT30;54931;52.098;21.006;2022-10-16T15:35:47;19.50;65.40
68128;SHT30;54931;52.098;21.006;2022-10-16T15:38:16;19.49;65.46
68128;SHT30;54931;52.098;21.006;2022-10-16T15:40:44;19.45;65.60
68128;SHT30;54931;52.098;21.006;2022-10-16T15:43:10;19.41;65.82
68128;SHT30;54931;52.098;21.006;2022-10-16T15:45:37;19.34;66.01
68128;SHT30;54931;52.098;21.006;2022-10-16T15:48:05;19.31;66.17
68128;SHT30;54931;52.098;21.006;2022-10-16T15:50:32;19.32;66.29
68128;SHT30;54931;52.098;21.006;2022-10-16T15:52:59;19.33;66.31
68128;SHT30;54931;52.098;21.006;2022-10-16T15:55:26;19.32;66.38
68128;SHT30;54931;52.098;21.006;2022-10-16T15:57:53;19.29;66.51
68128;SHT30;54931;52.098;21.006;2022-10-16T16:00:20;19.24;66.68
68128;SHT30;54931;52.098;21.006;2022-10-16T16:02:50;19.20;66.83
68128;SHT30;54931;52.098;21.006;2022-10-16T16:05:18;19.15;66.99
68128;SHT30;54931;52.098;21.006;2022-10-16T16:07:46;19.19;67.02
68128;SHT30;54931;52.098;21.006;2022-10-16T16:10:14;19.24;66.99
68128;SHT30;54931;52.098;21.006;2022-10-16T16:12:41;19.26;67.03
68128;SHT30;54931;52.098;21.006;2022-10-16T16:15:08;19.24;67.11
68128;SHT30;54931;52.098;21.006;2022-10-16T16:17:36;19.20;67.26
68128;SHT30;54931;52.098;21.006;2022-10-16T16:20:04;19.13;67.47
68128;SHT30;54931;52.098;21.006;2022-10-16T16:22:31;19.07;67.67
68128;SHT30;54931;52.098;21.006;2022-10-16T16:24:58;19.02;67.85
68128;SHT30;54931;52.098;21.006;2022-10-16T16:27:25;18.96;68.00
68128;SHT30;54931;52.098;21.006;2022-10-16T16:29:52;18.98;68.04
68128;SHT30;54931;52.098;21.006;2022-10-16T16:32:21;18.95;68.10
68128;SHT30;54931;52.098;21.006;2022-10-16T16:34:48;18.88;68.25
68128;SHT30;54931;52.098;21.006;2022-10-16T16:37:15;18.77;68.51
68128;SHT30;54931;52.098;21.006;2022-10-16T16:39:42;18.65;68.69
68128;SHT30;54931;52.098;21.006;2022-10-16T16:42:09;18.55;68.92
68128;SHT30;54931;52.098;21.006;2022-10-16T16:44:36;18.45;69.21
68128;SHT30;54931;52.098;21.006;2022-10-16T16:47:04;18.40;69.36
68128;SHT30;54931;52.098;21.006;2022-10-16T16:49:31;18.41;69.38
68128;SHT30;54931;52.098;21.006;2022-10-16T16:51:58;18.42;69.44
68128;SHT30;54931;52.098;21.006;2022-10-16T16:54:25;18.42;69.52
68128;SHT30;54931;52.098;21.006;2022-10-16T16:56:52;18.41;69.63
68128;SHT30;54931;52.098;21.006;2022-10-16T16:59:20;18.36;69.82
68128;SHT30;54931;52.098;21.006;2022-10-16T17:01:48;18.27;70.07
68128;SHT30;54931;52.098;21.006;2022-10-16T17:04:15;18.16;70.36
68128;SHT30;54931;52.098;21.006;2022-10-16T17:06:43;18.05;70.63
68128;SHT30;54931;52.098;21.006;2022-10-16T17:09:10;17.93;70.94
68128;SHT30;54931;52.098;21.006;2022-10-16T17:11:39;17.82;71.23
68128;SHT30;54931;52.098;21.006;2022-10-16T17:14:11;17.73;71.63
68128;SHT30;54931;52.098;21.006;2022-10-16T17:16:38;17.69;71.84
68128;SHT30;54931;52.098;21.006;2022-10-16T17:19:06;17.68;72.08
68128;SHT30;54931;52.098;21.006;2022-10-16T17:21:36;17.63;72.33
68128;SHT30;54931;52.098;21.006;2022-10-16T17:24:03;17.56;72.46